Time;durP1;ratioP1;P1;durP2;ratioP2;P2;SDS_P1;SDS_P2;PMS_P1;PMS_P2;Temp;Humidity;BMP_temperature;BMP_pressure;BME280_temperature;BME280_humidity;BME280_pressure;Samples;Min_cycle;Max_cycle;Signal;HPM_P1;HPM_P2
2022/06/04 00:01:45;;;;;;;1.37;1.27;;;;;;;18.09;96.85;95509.44;4331014;32;20220;-61
2022/06/04 00:04:15;;;;;;;0.97;0.97;;;;;;;18.06;97.21;95498.59;4337035;32;20185;-62
2022/06/04 00:06:42;;;;;;;0.87;0.87;;;;;;;18.08;96.93;95496.37;4323249;32;20204;-61
2022/06/04 00:09:11;;;;;;;0.90;0.90;;;;;;;18.04;96.94;95498.16;4315810;32;20230;-62
2022/06/04 00:17:09;;;;;;;0.87;0.87;;;;;;;18.03;97.07;95497.37;4341807;32;20218;-61
2022/06/04 00:19:35;;;;;;;0.83;0.83;;;;;;;18.01;97.05;95506.88;4315236;32;20200;-62
2022/06/04 00:22:05;;;;;;;1.27;1.07;;;;;;;18.04;97.06;95500.84;4302318;33;20190;-62
2022/06/04 00:24:30;;;;;;;1.20;1.20;;;;;;;18.06;96.88;95509.34;4346586;32;20189;-63
2022/06/04 00:26:57;;;;;;;1.57;1.47;;;;;;;18.08;96.56;95505.19;4344495;32;20239;-61
2022/06/04 00:29:23;;;;;;;0.87;0.87;;;;;;;17.94;97.12;95503.97;4346192;32;20195;-61
2022/06/04 00:31:52;;;;;;;0.83;0.70;;;;;;;17.99;97.26;95517.16;4338422;32;20220;-62
2022/06/04 00:34:19;;;;;;;0.70;0.70;;;;;;;18.05;96.70;95518.50;4343806;32;20288;-61
2022/06/04 00:36:45;;;;;;;1.10;1.10;;;;;;;17.89;97.18;95515.69;4332028;32;20272;-62
2022/06/04 00:39:12;;;;;;;1.40;1.30;;;;;;;18.04;96.51;95508.91;4326954;32;20189;-62
2022/06/04 00:42:23;;;;;;;0.77;0.77;;;;;;;17.88;97.09;95503.37;4342832;32;20200;-62
2022/06/04 00:45:40;;;;;;;0.70;0.70;;;;;;;17.77;97.66;95499.59;4294507;32;20185;-62
2022/06/04 00:48:08;;;;;;;1.03;1.03;;;;;;;17.79;97.72;95490.09;4310032;32;20181;-62
2022/06/04 00:50:39;;;;;;;0.57;0.57;;;;;;;17.74;97.84;95482.25;4332077;32;20196;-62
2022/06/04 00:53:10;;;;;;;0.80;0.80;;;;;;;17.72;97.76;95481.81;4322326;32;20178;-62
2022/06/04 00:56:16;;;;;;;0.60;0.60;;;;;;;17.84;97.62;95481.81;4332040;32;20204;-63
2022/06/04 00:59:19;;;;;;;1.00;1.00;;;;;;;17.85;97.49;95479.91;4330939;32;20309;-62
2022/06/04 01:02:05;;;;;;;0.93;0.93;;;;;;;17.89;97.16;95482.69;4332853;32;20185;-61
2022/06/04 01:05:06;;;;;;;0.53;0.53;;;;;;;17.89;97.10;95485.38;4341199;32;20231;-62
2022/06/04 01:08:06;;;;;;;0.90;0.90;;;;;;;17.91;96.92;95478.56;4344615;32;20199;-62
2022/06/04 01:11:09;;;;;;;0.90;0.90;;;;;;;17.87;97.01;95484.97;4364895;32;20233;-62
2022/06/04 01:14:12;;;;;;;0.83;0.83;;;;;;;17.91;96.68;95489.28;4316142;32;20202;-62
2022/06/04 01:17:11;;;;;;;0.60;0.60;;;;;;;17.76;96.97;95498.81;4313943;32;20231;-61
2022/06/04 01:20:17;;;;;;;1.23;1.13;;;;;;;17.80;97.24;95507.75;4315159;32;20276;-63
2022/06/04 01:23:25;;;;;;;0.50;0.50;;;;;;;17.72;97.49;95495.22;4285836;32;20189;-62
2022/06/04 01:26:37;;;;;;;0.90;0.90;;;;;;;17.79;97.39;95497.34;4339847;32;20189;-62
2022/06/04 01:29:11;;;;;;;0.63;0.63;;;;;;;17.68;97.07;95494.31;4293293;33;20191;-63
2022/06/04 01:31:47;;;;;;;0.50;0.50;;;;;;;17.74;97.36;95502.94;4329491;32;20181;-61
2022/06/04 01:34:20;;;;;;;1.33;1.23;;;;;;;17.71;97.52;95500.91;4310966;33;20177;-62
2022/06/04 01:36:55;;;;;;;0.50;0.50;;;;;;;17.71;97.34;95496.34;4313510;33;20201;-61
2022/06/04 01:41:03;;;;;;;0.83;0.83;;;;;;;17.71;97.21;95500.91;4270656;33;20197;-62
2022/06/04 01:42:13;;;;;;;1.43;1.37;;;;;;;17.77;96.96;95496.91;4307126;33;20183;-61
2022/06/04 01:44:45;;;;;;;0.53;0.53;;;;;;;17.55;97.48;95497.28;4302856;33;20249;-62
2022/06/04 01:47:18;;;;;;;1.40;1.30;;;;;;;17.57;97.73;95484.31;4288667;33;20374;-61
2022/06/04 01:49:49;;;;;;;1.07;1.07;;;;;;;17.68;97.58;95496.22;4324832;33;23195;-62
2022/06/04 01:52:25;;;;;;;0.90;0.90;;;;;;;17.65;97.32;95488.84;4326204;33;20260;-62
2022/06/04 01:54:59;;;;;;;0.87;0.70;;;;;;;17.64;97.46;95504.16;4299710;33;20182;-62
2022/06/04 01:57:32;;;;;;;1.33;1.33;;;;;;;17.65;96.89;95499.59;4324507;33;20275;-62
2022/06/04 02:00:10;;;;;;;0.40;0.40;;;;;;;17.68;96.88;95505.03;4314682;32;20240;-62
2022/06/04 02:02:58;;;;;;;0.47;0.47;;;;;;;17.68;96.50;95515.00;4346752;32;20178;-62
2022/06/04 02:05:32;;;;;;;0.73;0.73;;;;;;;17.68;96.78;95510.41;4328002;32;20189;-61
2022/06/04 02:08:03;;;;;;;6.23;0.70;;;;;;;17.65;96.62;95504.97;4305815;32;20182;-63
2022/06/04 02:10:35;;;;;;;5.17;0.70;;;;;;;17.75;96.50;95509.88;4351366;32;20197;-62
2022/06/04 02:13:09;;;;;;;1.70;1.60;;;;;;;17.71;96.53;95512.44;4360359;32;20192;-61
2022/06/04 02:15:47;;;;;;;0.57;0.57;;;;;;;17.65;96.77;95511.09;4305691;32;20181;-62
2022/06/04 02:18:14;;;;;;;0.53;0.53;;;;;;;17.54;96.62;95504.56;4338618;32;20220;-63
2022/06/04 02:20:40;;;;;;;0.83;0.83;;;;;;;17.64;96.78;95498.81;4320678;32;20223;-61
2022/06/04 02:23:07;;;;;;;0.60;0.60;;;;;;;17.59;96.58;95498.97;4321490;32;20350;-62
2022/06/04 02:25:34;;;;;;;1.27;1.17;;;;;;;17.63;96.70;95499.88;4332165;32;20180;-62
2022/06/04 02:28:02;;;;;;;0.50;0.50;;;;;;;17.64;96.45;95490.75;4343939;32;20185;-61
2022/06/04 02:30:42;;;;;;;0.80;0.80;;;;;;;17.67;96.21;95495.44;4355238;32;20237;-61
2022/06/04 02:33:50;;;;;;;0.23;0.23;;;;;;;17.66;96.22;95493.09;4344671;32;20307;-61
2022/06/04 02:36:55;;;;;;;0.50;0.50;;;;;;;17.48;97.14;95479.06;4300026;33;20185;-62
2022/06/04 02:40:00;;;;;;;0.83;0.77;;;;;;;17.35;97.28;95497.03;4293166;33;20183;-61
2022/06/04 02:43:05;;;;;;;0.80;0.80;;;;;;;17.51;97.05;95497.16;4251058;33;20191;-63
2022/06/04 02:45:45;;;;;;;0.80;0.80;;;;;;;17.55;96.14;95490.03;4237418;33;20205;-62
2022/06/04 02:48:35;;;;;;;0.50;0.50;;;;;;;17.57;96.00;95487.78;4295481;33;20190;-62
2022/06/04 02:51:15;;;;;;;0.47;0.47;;;;;;;17.36;96.57;95487.09;4290819;33;20325;-62
2022/06/04 02:53:41;;;;;;;3.17;0.90;;;;;;;17.52;96.14;95499.53;4275797;33;20195;-62
2022/06/04 02:56:16;;;;;;;0.80;0.80;;;;;;;17.41;96.27;95505.66;4276727;33;20342;-61
2022/06/04 02:58:46;;;;;;;0.93;0.93;;;;;;;17.50;96.25;95496.37;4286970;33;20217;-62
2022/06/04 03:01:15;;;;;;;0.50;0.50;;;;;;;17.50;95.94;95495.59;4275594;33;20198;-62
2022/06/04 03:03:41;;;;;;;0.50;0.50;;;;;;;17.38;96.16;95484.84;4307256;33;20190;-62
2022/06/04 03:06:24;;;;;;;0.70;0.70;;;;;;;17.44;96.22;95483.53;4293435;33;20272;-61
2022/06/04 03:09:02;;;;;;;0.70;0.70;;;;;;;17.54;95.89;95475.03;4300377;33;20189;-62
2022/06/04 03:11:29;;;;;;;1.10;0.97;;;;;;;17.45;96.14;95490.47;4326714;32;20193;-62
2022/06/04 03:13:56;;;;;;;0.63;0.60;;;;;;;17.37;96.11;95499.38;4329998;32;20200;-61
2022/06/04 03:16:22;;;;;;;0.63;0.63;;;;;;;17.46;96.27;95514.25;4325281;33;20190;-61
2022/06/04 03:18:49;;;;;;;1.03;1.03;;;;;;;17.31;96.77;95511.44;4347977;32;20201;-62
2022/06/04 03:21:15;;;;;;;1.07;1.07;;;;;;;17.36;96.53;95514.69;4328276;32;20265;-62
2022/06/04 03:23:42;;;;;;;0.53;0.53;;;;;;;17.21;96.46;95523.38;4334403;32;20276;-62
2022/06/04 03:26:08;;;;;;;0.50;0.50;;;;;;;17.36;96.43;95519.28;4331689;32;20237;-62
2022/06/04 03:28:34;;;;;;;0.50;0.50;;;;;;;17.34;96.27;95518.81;4327150;33;20192;-61
2022/06/04 03:31:05;;;;;;;0.20;0.20;;;;;;;17.45;95.78;95528.03;4320393;33;20233;-62
2022/06/04 03:33:31;;;;;;;8.03;0.90;;;;;;;17.33;95.90;95527.97;4322127;32;20276;-62
2022/06/04 03:36:01;;;;;;;0.67;0.67;;;;;;;17.37;96.13;95526.19;4324302;32;20200;-62
2022/06/04 03:38:29;;;;;;;0.60;0.60;;;;;;;17.37;96.23;95526.19;4344582;32;20181;-61
2022/06/04 03:40:56;;;;;;;0.80;0.80;;;;;;;17.40;96.01;95523.66;4335691;32;20215;-60
2022/06/04 03:43:23;;;;;;;0.67;0.67;;;;;;;17.43;96.13;95530.25;4336214;32;20186;-61
2022/06/04 03:45:48;;;;;;;0.80;0.80;;;;;;;17.33;96.15;95522.59;4327822;32;20207;-62
2022/06/04 03:48:15;;;;;;;0.80;0.80;;;;;;;17.33;96.10;95517.25;4357755;32;20276;-61
2022/06/04 03:50:42;;;;;;;2.27;1.00;;;;;;;17.33;96.26;95519.94;4345508;32;20200;-63
2022/06/04 03:53:08;;;;;;;1.03;0.93;;;;;;;17.38;96.22;95515.16;4340856;32;20357;-62
2022/06/04 03:55:35;;;;;;;0.73;0.73;;;;;;;17.41;96.33;95521.75;4328327;32;20186;-63
2022/06/04 03:58:05;;;;;;;0.47;0.47;;;;;;;17.44;95.89;95523.78;4314457;32;20203;-63
2022/06/04 04:00:37;;;;;;;1.63;1.17;;;;;;;17.17;96.74;95523.25;4347079;32;20191;-62
2022/06/04 04:03:13;;;;;;;0.37;0.37;;;;;;;17.18;96.70;95516.75;4314566;32;20180;-61
2022/06/04 04:05:44;;;;;;;1.60;1.03;;;;;;;17.28;96.81;95520.91;4303570;32;20223;-62
2022/06/04 04:08:11;;;;;;;0.87;0.87;;;;;;;17.24;96.90;95520.03;4349914;32;20176;-61
2022/06/04 04:10:41;;;;;;;0.60;0.60;;;;;;;17.36;96.00;95527.31;4318521;32;20189;-62
2022/06/04 04:13:08;;;;;;;1.23;1.23;;;;;;;17.34;96.25;95522.28;4350645;32;20201;-62
2022/06/04 04:15:35;;;;;;;0.93;0.93;;;;;;;17.34;96.11;95532.22;4326590;32;20186;-62
2022/06/04 04:18:05;;;;;;;0.53;0.53;;;;;;;17.35;95.89;95544.53;4332819;32;20182;-61
2022/06/04 04:20:34;;;;;;;0.43;0.43;;;;;;;17.33;96.01;95534.13;4358892;32;20199;-62
2022/06/04 04:23:04;;;;;;;0.67;0.67;;;;;;;17.40;95.92;95536.28;4347650;32;20185;-61
2022/06/04 04:25:31;;;;;;;0.73;0.73;;;;;;;17.40;95.67;95547.00;4362722;32;20191;-62
2022/06/04 04:27:58;;;;;;;0.70;0.70;;;;;;;17.36;96.04;95536.16;4358762;32;20229;-62
2022/06/04 04:30:29;;;;;;;0.83;0.83;;;;;;;17.33;96.09;95541.38;4334747;32;20185;-62
2022/06/04 04:32:56;;;;;;;0.80;0.80;;;;;;;17.28;96.42;95536.22;4315647;32;20319;-61
2022/06/04 04:35:34;;;;;;;0.50;0.50;;;;;;;17.27;96.46;95531.97;4344468;32;20193;-62
2022/06/04 04:38:02;;;;;;;0.57;0.57;;;;;;;17.33;96.42;95536.03;4350741;32;20287;-63
2022/06/04 04:40:30;;;;;;;0.93;0.93;;;;;;;17.33;96.12;95530.66;4337714;32;20229;-61
2022/06/04 04:42:57;;;;;;;0.80;0.80;;;;;;;17.29;96.44;95519.81;4334377;32;20177;-62
2022/06/04 04:45:25;;;;;;;0.63;0.63;;;;;;;17.33;96.31;95525.28;4323986;32;20185;-61
2022/06/04 04:47:52;;;;;;;0.53;0.53;;;;;;;17.35;96.38;95515.03;4301990;32;20240;-62
2022/06/04 04:50:32;;;;;;;1.07;1.07;;;;;;;17.41;95.92;95525.22;4328984;32;20245;-62
2022/06/04 04:53:04;;;;;;;0.53;0.53;;;;;;;17.42;95.81;95523.31;4355069;32;20233;-62
2022/06/04 04:55:30;;;;;;;0.63;0.63;;;;;;;17.43;95.81;95519.53;4321957;32;20265;-61
2022/06/04 04:57:56;;;;;;;0.93;0.93;;;;;;;17.47;95.73;95509.66;4347977;32;20165;-61
2022/06/04 05:00:23;;;;;;;0.80;0.70;;;;;;;17.52;95.67;95506.78;4338717;32;20185;-62
2022/06/04 05:02:50;;;;;;;1.07;0.43;;;;;;;17.52;95.72;95510.25;4342640;32;20190;-62
2022/06/04 05:05:17;;;;;;;1.77;0.70;;;;;;;17.50;95.92;95514.38;4339535;32;20193;-61
2022/06/04 05:07:44;;;;;;;0.50;0.50;;;;;;;17.58;95.77;95518.87;4332988;32;20218;-62
2022/06/04 05:10:14;;;;;;;0.67;0.67;;;;;;;17.59;95.91;95516.97;4336530;32;20197;-62
2022/06/04 05:12:42;;;;;;;0.80;0.80;;;;;;;17.59;96.31;95514.28;4329621;32;20185;-61
2022/06/04 05:15:11;;;;;;;0.53;0.53;;;;;;;17.55;96.40;95522.22;4304288;32;20193;-62
2022/06/04 05:17:41;;;;;;;0.90;0.90;;;;;;;17.52;96.82;95533.63;4323148;32;20193;-61
2022/06/04 05:20:09;;;;;;;1.40;0.97;;;;;;;17.60;96.91;95534.66;4318542;33;20212;-62
2022/06/04 05:22:35;;;;;;;0.67;0.67;;;;;;;17.61;97.13;95537.00;4329221;32;20352;-61
2022/06/04 05:25:01;;;;;;;0.90;0.90;;;;;;;17.67;97.07;95529.53;4331039;32;20193;-62
2022/06/04 05:27:28;;;;;;;1.10;1.10;;;;;;;17.57;97.66;95541.47;4333145;32;20200;-62
2022/06/04 05:29:58;;;;;;;0.33;0.33;;;;;;;17.65;97.76;95543.31;4345850;32;20205;-62
2022/06/04 05:32:27;;;;;;;0.30;0.30;;;;;;;17.62;97.68;95549.31;4351893;32;20232;-62
2022/06/04 05:34:54;;;;;;;0.73;0.73;;;;;;;17.67;97.45;95551.78;4336326;32;20184;-61
2022/06/04 05:37:21;;;;;;;0.60;0.60;;;;;;;17.73;97.25;95550.47;4348689;32;20235;-61
2022/06/04 05:39:48;;;;;;;4.57;1.00;;;;;;;17.79;96.94;95543.78;4314419;32;20200;-62
2022/06/04 05:42:14;;;;;;;1.20;1.20;;;;;;;17.78;97.04;95542.19;4322846;32;20192;-61
2022/06/04 05:44:41;;;;;;;0.60;0.60;;;;;;;17.71;97.74;95531.22;4353342;32;20200;-62
2022/06/04 05:47:08;;;;;;;0.60;0.60;;;;;;;17.63;98.25;95539.34;4357005;32;20273;-63
2022/06/04 05:49:35;;;;;;;0.30;0.30;;;;;;;17.73;98.16;95538.94;4348686;32;20192;-62
2022/06/04 05:52:00;;;;;;;0.73;0.73;;;;;;;17.75;98.17;95532.13;4344249;32;20213;-61
2022/06/04 05:54:27;;;;;;;1.30;1.20;;;;;;;17.95;97.49;95535.06;4348807;32;20185;-62
2022/06/04 05:56:52;;;;;;;5.20;0.83;;;;;;;17.85;98.00;95531.72;4359091;32;20255;-62
2022/06/04 05:59:21;;;;;;;2.03;0.90;;;;;;;17.95;97.75;95543.09;4337143;32;20272;-62
2022/06/04 06:01:48;;;;;;;0.37;0.37;;;;;;;18.08;97.61;95539.31;4301306;32;20177;-62
2022/06/04 06:04:17;;;;;;;0.97;0.97;;;;;;;18.11;97.27;95544.78;4353085;32;20173;-62
2022/06/04 06:06:47;;;;;;;0.60;0.60;;;;;;;18.09;97.31;95547.03;4357141;32;20181;-62
2022/06/04 06:09:15;;;;;;;0.60;0.57;;;;;;;18.26;96.90;95554.09;4323657;32;20241;-62
2022/06/04 06:11:48;;;;;;;0.60;0.60;;;;;;;18.36;96.99;95560.91;4331745;32;20197;-61
2022/06/04 06:14:16;;;;;;;0.80;0.80;;;;;;;18.45;97.13;95557.00;4323428;32;20203;-63
2022/06/04 06:16:45;;;;;;;1.27;1.07;;;;;;;18.50;96.51;95559.44;4310536;32;20207;-63
2022/06/04 06:19:14;;;;;;;1.27;1.20;;;;;;;18.70;96.62;95554.31;4341717;32;20204;-63
2022/06/04 06:21:41;;;;;;;0.87;0.87;;;;;;;18.79;96.71;95552.25;4342989;32;20178;-62
2022/06/04 06:24:10;;;;;;;6.53;0.90;;;;;;;18.83;95.71;95555.84;4307593;32;20181;-63
2022/06/04 06:26:48;;;;;;;0.70;0.70;;;;;;;19.06;95.38;95556.91;4315521;32;20203;-63
2022/06/04 06:29:17;;;;;;;1.70;1.30;;;;;;;19.12;94.78;95560.91;4322783;32;20307;-63
2022/06/04 06:31:44;;;;;;;1.07;1.07;;;;;;;19.25;94.13;95567.03;4338528;32;20185;-63
2022/06/04 06:34:12;;;;;;;0.73;0.73;;;;;;;19.31;93.66;95576.44;4355015;32;20189;-63
2022/06/04 06:36:39;;;;;;;1.10;0.93;;;;;;;19.30;95.17;95582.94;4362042;32;20250;-62
2022/06/04 06:39:07;;;;;;;0.83;0.83;;;;;;;19.32;95.20;95585.28;4363088;32;20205;-63
2022/06/04 06:41:33;;;;;;;0.93;0.93;;;;;;;19.33;94.70;95593.00;4343246;32;20185;-63
2022/06/04 06:43:59;;;;;;;1.20;1.13;;;;;;;19.35;95.67;95595.34;4356306;32;20221;-64
2022/06/04 06:46:48;;;;;;;2.87;1.27;;;;;;;19.35;95.75;95600.72;4356304;32;20181;-62
2022/06/04 06:49:22;;;;;;;3.90;1.07;;;;;;;19.33;95.87;95608.38;4355802;32;20362;-63
2022/06/04 06:51:56;;;;;;;10.70;1.83;;;;;;;19.43;94.54;95595.22;4359050;32;20268;-64
2022/06/04 06:54:25;;;;;;;1.43;1.43;;;;;;;19.57;95.48;95592.12;4346170;32;20286;-63
2022/06/04 06:57:01;;;;;;;1.00;1.00;;;;;;;19.73;94.63;95600.28;4347855;32;20181;-63
2022/06/04 06:59:28;;;;;;;1.70;1.27;;;;;;;19.72;94.91;95594.09;4360468;32;20181;-63
2022/06/04 07:02:17;;;;;;;3.77;2.30;;;;;;;19.81;93.70;95604.69;4360644;32;20272;-63
2022/06/04 07:04:44;;;;;;;2.20;2.10;;;;;;;19.73;94.73;95609.13;4370092;32;20181;-63
2022/06/04 07:07:13;;;;;;;1.67;1.60;;;;;;;19.56;95.07;95606.72;4359141;32;20192;-63
2022/06/04 07:09:41;;;;;;;2.07;1.97;;;;;;;19.55;94.09;95610.53;4355429;32;20252;-64
2022/06/04 07:12:09;;;;;;;0.93;0.93;;;;;;;19.62;94.06;95618.03;4371442;32;20184;-63
2022/06/04 07:14:37;;;;;;;0.77;0.77;;;;;;;19.55;93.81;95615.91;4371027;32;20181;-63
2022/06/04 07:17:07;;;;;;;3.33;1.67;;;;;;;19.52;93.94;95611.25;4373117;32;20184;-63
2022/06/04 07:19:34;;;;;;;10.10;1.57;;;;;;;19.55;93.94;95632.06;4355306;32;20254;-63
2022/06/04 07:22:11;;;;;;;1.97;1.20;;;;;;;19.69;94.00;95629.78;4370246;32;20238;-63
2022/06/04 07:24:38;;;;;;;0.97;0.97;;;;;;;19.58;93.58;95636.00;4362327;32;20192;-63
2022/06/04 07:27:08;;;;;;;2.10;1.77;;;;;;;19.62;94.86;95636.88;4365775;32;20274;-64
2022/06/04 07:29:35;;;;;;;0.87;0.60;;;;;;;19.62;94.36;95647.66;4372685;32;20196;-63
2022/06/04 07:32:10;;;;;;;0.47;0.47;;;;;;;19.75;94.52;95658.00;4366316;32;20185;-63
2022/06/04 07:34:40;;;;;;;0.27;0.27;;;;;;;19.96;94.64;95683.94;4349186;32;20205;-62
2022/06/04 07:37:09;;;;;;;1.03;1.03;;;;;;;20.03;94.00;95708.41;4372319;32;20196;-63
2022/06/04 07:39:35;;;;;;;0.63;0.63;;;;;;;19.99;92.89;95705.59;4373296;32;20185;-63
2022/06/04 07:42:00;;;;;;;0.53;0.53;;;;;;;20.04;93.42;95704.56;4374955;32;20286;-63
2022/06/04 07:44:27;;;;;;;1.00;1.00;;;;;;;19.98;92.20;95708.63;4366102;32;20189;-63
2022/06/04 07:46:55;;;;;;;2.10;0.73;;;;;;;19.99;90.11;95696.72;4375703;32;20222;-62
2022/06/04 07:49:21;;;;;;;0.90;0.90;;;;;;;20.13;88.27;95676.38;4368525;32;20230;-62
2022/06/04 07:51:56;;;;;;;0.60;0.60;;;;;;;20.28;87.59;95680.19;4351685;32;20193;-62
2022/06/04 07:54:23;;;;;;;0.50;0.50;;;;;;;20.15;84.10;95681.41;4355250;32;20202;-62
2022/06/04 07:56:50;;;;;;;1.03;1.03;;;;;;;20.05;83.47;95673.81;4355690;32;20207;-62
2022/06/04 07:59:18;;;;;;;0.40;0.40;;;;;;;19.97;84.39;95680.13;4353374;32;20256;-62
2022/06/04 08:01:57;;;;;;;1.00;1.00;;;;;;;19.88;84.90;95683.00;4329840;32;20193;-62
2022/06/04 08:04:27;;;;;;;2.03;1.53;;;;;;;19.75;83.93;95684.16;4339336;32;20188;-62
2022/06/04 08:07:01;;;;;;;0.70;0.70;;;;;;;19.62;85.14;95686.13;4292321;32;20271;-62
2022/06/04 08:09:29;;;;;;;0.73;0.73;;;;;;;19.54;86.40;95678.94;4325504;32;20207;-61
2022/06/04 08:11:58;;;;;;;0.20;0.20;;;;;;;19.52;86.16;95681.22;4373821;32;20193;-63
2022/06/04 08:14:26;;;;;;;1.10;1.00;;;;;;;19.36;87.56;95674.94;4376850;32;20192;-62
2022/06/04 08:16:59;;;;;;;0.60;0.60;;;;;;;19.38;87.66;95668.09;4373220;32;20185;-63
2022/06/04 08:19:27;;;;;;;1.13;0.63;;;;;;;19.44;87.60;95663.28;4360569;32;20185;-62
2022/06/04 08:21:57;;;;;;;4.53;1.50;;;;;;;19.55;87.18;95662.47;4353818;32;20184;-62
2022/06/04 08:24:24;;;;;;;1.33;1.03;;;;;;;19.50;87.51;95662.72;4336208;32;20200;-62
2022/06/04 08:26:58;;;;;;;1.10;1.10;;;;;;;19.61;87.43;95657.63;4359967;32;20199;-62
2022/06/04 08:29:31;;;;;;;0.70;0.70;;;;;;;19.63;87.94;95650.00;4347155;32;20231;-62
2022/06/04 08:31:59;;;;;;;3.00;1.40;;;;;;;19.73;87.82;95646.03;4345579;32;20257;-64
2022/06/04 08:34:28;;;;;;;0.37;0.37;;;;;;;19.62;88.73;95629.59;4360833;32;20204;-62
2022/06/04 08:36:55;;;;;;;0.53;0.53;;;;;;;19.70;87.82;95627.88;4341644;32;20185;-64
2022/06/04 08:39:20;;;;;;;0.50;0.50;;;;;;;19.79;86.76;95637.34;4338248;32;20189;-62
2022/06/04 08:42:29;;;;;;;0.50;0.50;;;;;;;19.79;86.71;95621.19;4348540;32;20177;-62
2022/06/04 08:45:00;;;;;;;0.83;0.83;;;;;;;19.87;86.80;95609.50;4293881;33;20182;-63
2022/06/04 08:47:48;;;;;;;2.00;1.90;;;;;;;19.99;85.20;95605.94;4349542;32;20177;-62
2022/06/04 08:50:21;;;;;;;0.40;0.40;;;;;;;20.13;84.67;95600.94;4358754;32;20177;-62
2022/06/04 08:52:54;;;;;;;1.70;1.10;;;;;;;20.31;83.69;95595.19;4367316;32;20185;-62
2022/06/04 08:59:53;;;;;;;0.43;0.43;;;;;;;20.52;84.16;95598.41;4319838;32;20196;-62
2022/06/04 09:02:25;;;;;;;0.93;0.93;;;;;;;20.64;85.76;95600.22;4220846;33;20192;-62
2022/06/04 09:05:23;;;;;;;0.60;0.60;;;;;;;20.68;84.99;95609.97;4221433;33;20188;-62
2022/06/04 09:07:54;;;;;;;0.60;0.60;;;;;;;20.70;84.90;95604.22;4210409;33;20302;-62
2022/06/04 09:10:36;;;;;;;0.60;0.60;;;;;;;20.71;85.72;95603.09;4233615;33;20191;-62
2022/06/04 09:13:42;;;;;;;0.50;0.50;;;;;;;20.68;84.76;95595.69;4254281;32;20243;-63
2022/06/04 09:16:23;;;;;;;0.37;0.37;;;;;;;20.83;85.69;95597.56;4339429;32;20189;-62
2022/06/04 09:19:07;;;;;;;0.40;0.40;;;;;;;20.98;83.54;95599.47;4324896;32;20224;-62
2022/06/04 09:21:36;;;;;;;0.40;0.40;;;;;;;21.11;82.44;95590.09;4313990;32;20190;-63
2022/06/04 09:24:04;;;;;;;0.40;0.40;;;;;;;21.11;82.69;95590.09;4318092;32;20215;-62
2022/06/04 09:27:03;;;;;;;0.40;0.40;;;;;;;21.17;82.75;95580.59;4365483;32;20193;-62
2022/06/04 09:30:10;;;;;;;3.60;3.07;;;;;;;21.35;82.40;95591.00;4344965;32;20224;-63
2022/06/04 09:33:01;;;;;;;1.73;1.63;;;;;;;21.51;80.66;95599.78;4339867;32;20207;-62
2022/06/04 09:35:31;;;;;;;2.20;2.00;;;;;;;21.56;79.60;95600.28;4355204;32;20201;-62
2022/06/04 09:37:56;;;;;;;1.00;1.00;;;;;;;21.70;77.04;95599.00;4349217;32;20263;-63
2022/06/04 09:40:29;;;;;;;0.57;0.57;;;;;;;21.77;75.96;95596.44;4344402;32;20260;-62
2022/06/04 09:43:47;;;;;;;0.77;0.70;;;;;;;21.84;76.69;95605.44;4307591;32;20180;-62
2022/06/04 09:46:23;;;;;;;0.40;0.30;;;;;;;21.89;75.17;95602.44;4371956;32;20185;-63
2022/06/04 09:48:52;;;;;;;0.30;0.30;;;;;;;21.89;74.52;95607.84;4373824;32;20199;-62
2022/06/04 09:51:26;;;;;;;0.30;0.30;;;;;;;21.90;74.10;95603.22;4359861;32;20240;-62
2022/06/04 09:54:05;;;;;;;0.27;0.27;;;;;;;22.08;68.28;95611.69;4346777;32;20184;-62
2022/06/04 09:56:43;;;;;;;0.97;0.53;;;;;;;22.19;67.22;95609.97;4350597;32;20247;-62
2022/06/04 09:59:28;;;;;;;0.37;0.37;;;;;;;22.35;68.51;95597.09;4357224;32;20235;-62
2022/06/04 10:02:16;;;;;;;0.33;0.33;;;;;;;22.45;67.25;95601.09;4322011;32;20192;-62
2022/06/04 10:04:47;;;;;;;0.30;0.30;;;;;;;22.35;69.29;95605.19;4365517;32;20234;-62
2022/06/04 10:07:28;;;;;;;1.07;1.07;;;;;;;22.29;69.41;95618.22;4354485;32;20185;-63
2022/06/04 10:09:56;;;;;;;0.60;0.60;;;;;;;22.16;71.24;95608.75;4339316;32;20218;-63
2022/06/04 10:15:31;;;;;;;0.63;0.43;;;;;;;22.32;70.20;95614.03;4309108;32;20192;-63
2022/06/04 10:18:02;;;;;;;0.53;0.40;;;;;;;22.40;67.77;95610.31;4351006;32;20282;-62
2022/06/04 10:20:28;;;;;;;1.07;0.93;;;;;;;22.45;68.24;95599.16;4357723;32;20293;-63
2022/06/04 10:22:55;;;;;;;0.10;0.10;;;;;;;22.46;72.28;95603.44;4352494;32;20188;-63
2022/06/04 10:25:28;;;;;;;0.73;0.73;;;;;;;22.55;69.42;95592.38;4352657;32;20243;-63
2022/06/04 10:28:22;;;;;;;2.93;2.77;;;;;;;22.64;70.57;95590.22;4305712;32;20199;-63
2022/06/04 10:31:27;;;;;;;2.97;2.87;;;;;;;22.66;70.64;95582.47;4340130;32;20298;-63
2022/06/04 10:34:38;;;;;;;1.37;1.37;;;;;;;22.68;70.42;95584.81;4352119;32;20184;-63
2022/06/04 10:37:13;;;;;;;0.33;0.33;;;;;;;22.71;70.38;95589.50;4350076;32;20215;-63
2022/06/04 10:40:36;;;;;;;1.60;0.73;;;;;;;22.68;70.74;95580.19;4341590;32;20266;-63
2022/06/04 10:43:44;;;;;;;0.63;0.63;;;;;;;22.72;71.46;95591.06;4286293;33;20221;-63
2022/06/04 10:46:47;;;;;;;0.67;0.67;;;;;;;22.82;68.52;95585.09;4230556;33;20199;-63
2022/06/04 10:49:55;;;;;;;0.43;0.43;;;;;;;22.88;68.59;95591.72;4242776;33;20205;-63
2022/06/04 10:52:36;;;;;;;0.13;0.13;;;;;;;22.85;69.85;95587.84;4227715;33;20196;-63
2022/06/04 10:55:21;;;;;;;1.00;1.00;;;;;;;22.89;69.57;95577.81;4235880;33;20215;-63
2022/06/04 10:58:23;;;;;;;0.73;0.73;;;;;;;22.82;68.52;95574.25;4230335;33;20406;-62
2022/06/04 11:01:02;;;;;;;0.83;0.83;;;;;;;22.96;67.11;95574.44;4242403;33;20310;-63
2022/06/04 11:04:03;;;;;;;0.37;0.37;;;;;;;23.07;66.50;95564.53;4228944;33;20203;-63
2022/06/04 11:06:41;;;;;;;0.70;0.70;;;;;;;23.06;66.42;95554.88;4235884;33;20234;-62
2022/06/04 11:09:19;;;;;;;0.93;0.93;;;;;;;23.08;66.35;95552.56;4250091;33;20195;-62
2022/06/04 11:12:30;;;;;;;1.13;1.13;;;;;;;23.23;65.73;95554.31;4223899;33;20288;-63
2022/06/04 11:15:14;;;;;;;0.40;0.40;;;;;;;23.21;66.86;95548.47;4371860;32;20196;-63
2022/06/04 11:18:12;;;;;;;1.17;0.73;;;;;;;23.21;67.39;95556.59;4348995;32;20278;-63
2022/06/04 11:20:50;;;;;;;0.43;0.43;;;;;;;23.42;67.11;95555.31;4366471;32;20184;-63
2022/06/04 11:23:45;;;;;;;0.70;0.70;;;;;;;23.61;66.49;95544.31;4362754;32;20347;-62
2022/06/04 11:26:21;;;;;;;0.60;0.60;;;;;;;23.67;66.80;95542.84;4370631;32;20193;-63
2022/06/04 11:28:51;;;;;;;0.40;0.40;;;;;;;23.71;65.37;95538.22;4348244;32;20199;-63
2022/06/04 11:31:50;;;;;;;0.23;0.23;;;;;;;23.77;65.24;95536.72;4354141;32;20185;-63
2022/06/04 11:35:03;;;;;;;0.93;0.73;;;;;;;23.83;62.46;95535.25;4349258;32;20279;-62
2022/06/04 11:38:16;;;;;;;0.87;0.40;;;;;;;23.80;63.77;95530.56;4339331;32;20189;-62
2022/06/04 11:41:06;;;;;;;0.67;0.67;;;;;;;23.81;62.11;95536.78;4349368;32;20185;-62
2022/06/04 11:43:53;;;;;;;0.67;0.67;;;;;;;23.83;63.97;95531.75;4363942;32;20219;-63
2022/06/04 11:46:46;;;;;;;1.60;0.43;;;;;;;23.84;65.05;95536.81;4376245;32;20184;-63
2022/06/04 11:49:36;;;;;;;0.77;0.50;;;;;;;23.77;65.64;95534.03;4352391;32;20181;-62
2022/06/04 11:52:27;;;;;;;0.40;0.40;;;;;;;23.73;65.67;95535.13;4323258;32;20189;-62
2022/06/04 11:55:21;;;;;;;0.23;0.23;;;;;;;23.78;63.79;95532.09;4351809;32;20203;-63
2022/06/04 11:58:34;;;;;;;0.67;0.67;;;;;;;23.78;62.04;95524.75;4332416;32;20174;-63
2022/06/04 12:01:13;;;;;;;0.73;0.27;;;;;;;23.94;62.37;95529.91;4318994;32;20228;-62
2022/06/04 12:03:57;;;;;;;0.50;0.50;;;;;;;23.85;64.20;95532.16;4340474;32;20188;-62
2022/06/04 12:06:43;;;;;;;1.13;0.83;;;;;;;23.89;64.36;95528.34;4342025;32;20267;-63
2022/06/04 12:09:53;;;;;;;2.00;0.50;;;;;;;23.86;65.06;95523.66;4357832;32;20184;-63
2022/06/04 12:12:48;;;;;;;0.20;0.20;;;;;;;24.01;64.09;95531.91;4278492;33;20284;-63
2022/06/04 12:15:28;;;;;;;0.57;0.50;;;;;;;24.06;62.30;95523.44;4282782;33;20233;-63
2022/06/04 12:18:01;;;;;;;0.67;0.67;;;;;;;24.02;60.72;95528.84;4293078;33;20182;-63
2022/06/04 12:26:44;;;;;;;0.60;0.60;;;;;;;24.16;59.65;95533.59;4333530;32;20199;-62
2022/06/04 12:29:31;;;;;;;1.47;1.03;;;;;;;23.99;61.10;95527.66;4367183;32;20289;-63
2022/06/04 12:32:16;;;;;;;0.90;0.90;;;;;;;23.83;61.77;95527.13;4359641;32;20184;-63
2022/06/04 12:34:44;;;;;;;1.03;1.03;;;;;;;24.01;62.74;95526.50;4343695;32;20252;-63
2022/06/04 12:37:40;;;;;;;0.73;0.73;;;;;;;24.08;63.90;95532.75;4331007;32;20239;-63